MET'MAP v2.0
soon released !

Expected late october,
this new version will be
more efficient, smarter,
and hosted on a brand new
server x3 powerfull...
...and still free !


Not compatible ?
Try the mobile version !

LOG IN : | Subscribe | Disclaimer | Who is Orbifly ? |
ICAO code :
Legend : VFR Marginal VFR IFR Intensive IFR Very Intensive IFR
Visi :
Ceiling :
>= 8 km
>= 3000ft
5 to 8 km
1000 to 3000 ft
1500m to 5 km
500 to 1000 ft
800 to 1500m
200 to 500 ft
< 800m
< 200 ft

METAR - EGXW RAF Waddington - 27 May 2020 04:06 UTC
Data Sources :     NOAA   


- Airport Elevation : 231 ft
- IATA code : WTN
- No reported NOTAMs.


EGXW - RAF Waddington

Latest METAR recorded : 2015/08/11 07:50 EGXW 110750Z 27005KT CAVOK 14/10 Q1019 BLU NOSIG
TAF TAF EGXW
Valid from the 26 at 18:00 until the 27 at 12:00 UTC


261646Z 2618/2712 35007KT 9999 BKN045

Source NOAA


MET'MAP, your aeronautical weather chart ! - Copyright ORBIFLY December 2007

Programming & Development : Alexandra Zaïnal
Co-Developer : Marc-Olivier Méhu
Technical & hardware support : Manuel Goepfert
Concept & Financing : Baudouin d'Aumeries